Ride Results

Eden Creek (14-05-2006)
Ride distance: 82.0 km

Outcomes - Eden Creek (14-05-2006)
Division No. of Entries Retired / DNE Completed Withdrawn Ineligible V/O Percentage Completed
HW 11 - 7 - - 4 63.64%
MW 22 - 18 1 - 3 81.82%
LW 18 - 12 - - 6 66.67%
JN 6 - 6 - - - 100.00%
Totals 57 - 43 1 - 13 75.44%
Results - Eden Creek (14-05-2006)
No. Rider Horse Place Time Leg Speeds Total
Km/Hr
H/R bpm
Heavyweight
16 Peter Toft Bremervale Justice 1 6:14:00 13.1, 13.1 13.16 30, 39, 44 (Avg:41)
4 Selwyn Nix Dunbar Mahadik 2 6:29:00 13.0, 12.2 12.65 30, 39, 45 (Avg:42)
32 Davin Coughran Burgler 3 6:39:00 12.1, 12.5 12.33 40, 40, 58 (Avg:49)
21 John Davidson Ennovyar Dancing Girl 4 7:49:00 10.6, 10.3 10.49 37, 42, 58 (Avg:50)
2 Meagan Makejev Desert Sand 4 7:49:00 10.7, 10.2 10.49 35, 48, 58 (Avg:53)
11 Lucas Hyland The Prophet 6 7:55:00 10.6, 10.0 10.36 30, 37, 47 (Avg:42)
35 David Toft Bremervale Red Label 7 8:09:00 9.9, 10.1 10.06 33, 41, 45 (Avg:43)
26 David Grove Aloha Princess Di Lame L2 0:00:00 12.9, 11.5 - 29, 38, 56 (Avg:47)
12 Richard Standfield Kalgoolie Gold Heart Rate L2 0:00:00 14.8, 13.1 - 34, 45, 62 (Avg:53)
1 Eric Tuennecke Kyuna Lane Heart Rate L2 0:00:00 13.1, 11.3 - 30, 44, 66 (Avg:55)
47 Roy Barsby Dumaresq Trogan Lame P/R 0:00:00 - - 38
Middleweight
42 Tony Standfield Stanpark RH 1 4:48:00 16.1, 18.1 17.08 31, 55, 60 (Avg:57)
45 Narelle Childs Follyfoot 2 5:10:00 15.2, 16.5 15.87 36, 45, 51 (Avg:48)
48 Joyce Corbett Reeflex 2 5:10:00 15.2, 16.5 15.87 34, 41, 47 (Avg:44)
36 Stephen Gray Talika Fadar 4 5:45:00 14.7, 13.7 14.26 36, 46, 56 (Avg:51)
40 Jaimee Foulsham Tora Blar-Zay 5 6:07:00 13.1, 13.6 13.41 31, 36, 48 (Avg:42)
14 Penny Toft Electra BBP Murdoch 5 6:07:00 13.1, 13.6 13.41 32, 34, 42 (Avg:38)
6 Corey Nix Blythswood Nefertari 7 6:09:00 11.9, 15.1 13.33 35, 39, 53 (Avg:46)
17 Trent Brickley Traveler 8 6:18:00 13.0, 12.9 13.02 38, 42, 47 (Avg:44)
5 Debbie Thompson Caramea Dancing Heart 9 6:31:00 12.4, 12.7 12.58 33, 42, 44 (Avg:43)
31 Bill Ward Al Wathba Shakarma 10 6:32:00 13.5, 11.6 12.55 28, 46, 52 (Avg:49)
20 Damien Keys Meadow View Karnak 11 6:41:00 12.9, 11.5 12.27 34, 47, 52 (Avg:49)
41 Louis Botha Casabella Silver Sovereign 12 6:45:00 11.8, 12.4 12.15 34, 39, 44 (Avg:41)
24 Dale Hargreaves Castlebar Truman 13 6:58:00 12.1, 11.4 11.77 46, 47, 49 (Avg:48)
25 Ursula Keenan Reesville Saban 13 6:58:00 13.0, 10.6 11.77 30, 49, 56 (Avg:52)
56 Jane Davidson Nangana Madoukhar 15 7:49:00 10.6, 10.3 10.49 46, 41, 47 (Avg:44)
57 Alan Roberts Aloha Silver Domino 15 7:49:00 10.6, 10.3 10.49 42, 44, 52 (Avg:48)
33 Warwick Toft Bremervale Personified 17 8:09:00 9.9, 10.1 10.06 34, 40, 45 (Avg:42)
34 Helen Toft Bremervale Flying High 17 8:09:00 9.9, 10.1 10.06 30, 40, 46 (Avg:43)
50 Judy Battams El Rebel Stimulator Lame L2 0:00:00 16.0, 16.2 - 44, 50, 60 (Avg:55)
43 Dean Chamberlain Zara Farm Shadasj Lame L2 0:00:00 13.5, 13.2 - 34, 38, 43 (Avg:40)
7 Derryn Nix Dunbar El Maestro Withdrawn L1 0:00:00 - - 35, 54 (Avg:54)
53 Allan Standfield Myrimbah Jawan Lame L1 0:00:00 14.7 - 39, 44 (Avg:44)
Lightweight
52 Anne Criner Zara Farm Ayesha 1 5:10:00 16.0, 15.6 15.87 48, 55, 51 (Avg:53)
9 Leah Felton Mahogany Reflection 2 5:28:00 15.4, 14.5 15.00 37, 50, 59 (Avg:54)
46 Deanna Trevena Warr of the Roses 3 5:44:00 13.1, 15.6 14.30 34, 41, 51 (Avg:46)
28 Joy Rose Fernside Chenoah Tatanya 4 5:46:00 15.0, 13.4 14.22 35, 45, 60 (Avg:52)
44 Julia Morgillo Woodbourne Medico 5 5:56:00 13.5, 14.1 13.82 34, 41, 46 (Avg:43)
13 Carly Nix Rayjen Boaz 6 6:29:00 11.9, 13.4 12.65 32, 40, 44 (Avg:42)
27 Bec Miller Rowallan Rosella 7 6:58:00 13.0, 10.6 11.77 27, 37, 46 (Avg:41)
54 Clare Fleming Mangueira Moksha 8 7:12:00 11.4, 11.3 11.39 32, 39, 39 (Avg:39)
23 Kirsty Owen El-Shahmani Cassanova 9 7:49:00 10.6, 10.3 10.49 32, 47, 56 (Avg:51)
18 Nina Jackson Stanpark Kilara 10 7:52:00 11.5, 9.4 10.42 36, 50, 60 (Avg:55)
58 Julie Fletcher Hillbrae Garnet 11 7:56:00 11.1, 9.5 10.34 35, 41, 46 (Avg:43)
8 Caroline Windle Bradali Asefa 11 7:56:00 11.3, 9.4 10.34 30, 41, 46 (Avg:43)
39 Nicky Bakon Stanpark Mystery Lame L2 0:00:00 15.8, 9.6 - 36, 36, 45 (Avg:40)
19 Christine Christie Reg Heart Rate L2 0:00:00 13.6, 11.1 - 32, 48, 66 (Avg:57)
37 Chloe Lyons Stanpark Bell Heart Rate L2 0:00:00 15.8, 18.6 - 34, 42, 62 (Avg:52)
3 Edwina Nicholson Bungabee Flexie Lame L2 0:00:00 12.1, 12.1 - 38, 42, 56 (Avg:49)
10 Jackie Parsons Satin Lace Metabolics severe L1 0:00:00 11.3 - 38, 49 (Avg:49)
29 Kim Ruehe Ubejane Lame L1 0:00:00 13.5 - 35, 40 (Avg:40)
Junior
15 Alexandra Toft Zalman 1 6:14:00 13.1, 13.1 13.16 34, 44, 45 (Avg:44)
38 Aime Newton Stanpark Simone 2 6:47:00 12.1, 12.0 12.09 38, 34, 44 (Avg:39)
49 Shay Corbett Murland Park Muriah 3 6:58:00 15.8, 9.2 11.77 36, 40, 60 (Avg:50)
55 Leila Callander Jaytee The Rebel 4 7:49:00 10.6, 10.3 10.49 34, 36, 42 (Avg:39)
22 Ian Davidson Jaytee Amana 4 7:49:00 10.7, 10.2 10.49 38, 41, 53 (Avg:47)
30 Georgia Toft Bremervale Shadowfax 6 8:09:00 9.9, 10.1 10.06 36, 49, 49 (Avg:49)